createdAt,value
2022-08-19T00:00:28.594Z,18.83
2022-08-19T00:01:53.772Z,20.23
2022-08-19T00:03:15.986Z,16.60
2022-08-19T00:04:38.605Z,20.87
2022-08-19T00:06:00.713Z,17.70
2022-08-19T00:07:22.792Z,19.77
2022-08-19T00:08:45.718Z,16.80
2022-08-19T00:10:09.075Z,19.13
2022-08-19T00:11:32.581Z,19.20
2022-08-19T00:12:54.653Z,27.73
2022-08-19T00:14:18.608Z,22.50
2022-08-19T00:15:40.688Z,23.23
2022-08-19T00:17:04.811Z,24.33
2022-08-19T00:18:27.373Z,21.67
2022-08-19T00:19:49.539Z,17.10
2022-08-19T00:21:11.630Z,25.63
2022-08-19T00:22:34.229Z,18.70
2022-08-19T00:24:00.538Z,19.70
2022-08-19T00:25:30.137Z,24.33
2022-08-19T00:26:53.258Z,25.20
2022-08-19T00:28:15.409Z,19.10
2022-08-19T00:29:37.483Z,19.30
2022-08-19T00:31:00.620Z,19.50
2022-08-19T00:32:22.978Z,21.53
2022-08-19T00:33:45.975Z,17.57
2022-08-19T00:35:08.803Z,21.63
2022-08-19T00:36:32.765Z,21.27
2022-08-19T00:37:55.125Z,19.97
2022-08-19T00:39:18.154Z,16.57
2022-08-19T00:40:40.704Z,18.37
2022-08-19T00:42:02.959Z,17.90
2022-08-19T00:43:27.136Z,19.23
2022-08-19T00:44:50.178Z,17.63
2022-08-19T00:46:12.305Z,21.23
2022-08-19T00:47:34.383Z,18.67
2022-08-19T00:48:58.513Z,23.80
2022-08-19T00:50:22.554Z,19.53
2022-08-19T00:51:47.917Z,21.20
2022-08-19T00:53:13.021Z,21.20
2022-08-19T00:54:37.619Z,22.20
2022-08-19T00:56:01.981Z,21.70
2022-08-19T00:57:36.740Z,20.90
2022-08-19T00:59:00.369Z,21.47
2022-08-19T01:00:25.449Z,18.93
2022-08-19T01:01:48.446Z,19.13
2022-08-19T01:03:15.228Z,23.57
2022-08-19T01:04:37.362Z,19.73
2022-08-19T01:06:00.995Z,18.20
2022-08-19T01:07:23.541Z,24.57
2022-08-19T01:08:46.045Z,20.13
2022-08-19T01:10:15.337Z,28.73
2022-08-19T01:11:41.209Z,31.47
2022-08-19T01:13:04.861Z,21.50
2022-08-19T01:14:27.253Z,22.47
2022-08-19T01:15:57.444Z,21.60
2022-08-19T01:17:20.564Z,22.00
2022-08-19T01:18:44.117Z,22.67
2022-08-19T01:20:10.280Z,28.40
2022-08-19T01:21:34.226Z,22.60
2022-08-19T01:22:59.042Z,27.07
2022-08-19T01:24:21.097Z,22.50
2022-08-19T01:25:48.400Z,29.83
2022-08-19T01:27:10.874Z,24.30
2022-08-19T01:28:34.171Z,25.70
2022-08-19T01:30:01.876Z,24.80
2022-08-19T01:31:27.760Z,22.83
2022-08-19T01:32:51.887Z,26.23
2022-08-19T01:34:14.083Z,23.90
2022-08-19T01:35:37.341Z,27.60
2022-08-19T01:36:59.376Z,32.00
2022-08-19T01:38:29.208Z,25.23
2022-08-19T01:39:51.331Z,22.20
2022-08-19T01:41:13.700Z,19.33
2022-08-19T01:42:36.160Z,22.90
2022-08-19T01:44:12.372Z,28.10
2022-08-19T01:45:41.230Z,19.87
2022-08-19T01:47:04.681Z,26.00
2022-08-19T01:48:26.775Z,21.83
2022-08-19T01:49:48.821Z,28.17
2022-08-19T01:51:11.965Z,20.17
2022-08-19T01:52:36.954Z,21.40
2022-08-19T01:53:59.514Z,21.67
2022-08-19T01:55:25.061Z,22.00
2022-08-19T01:56:47.337Z,21.97
2022-08-19T01:58:21.844Z,20.70
2022-08-19T01:59:45.595Z,22.13
2022-08-19T02:01:08.543Z,17.03
2022-08-19T02:02:30.914Z,23.93
2022-08-19T02:03:54.283Z,27.87
2022-08-19T02:05:19.569Z,19.50
2022-08-19T02:06:41.824Z,20.80
2022-08-19T02:08:04.475Z,24.60
2022-08-19T02:09:26.727Z,30.07
2022-08-19T02:10:49.153Z,22.10
2022-08-19T02:12:11.244Z,22.87
2022-08-19T02:13:34.639Z,22.60
2022-08-19T02:14:56.859Z,24.57
2022-08-19T02:16:20.173Z,25.83
2022-08-19T02:17:42.353Z,21.70
2022-08-19T02:19:05.089Z,27.73
2022-08-19T02:20:27.121Z,17.80
2022-08-19T02:21:49.339Z,20.00
2022-08-19T02:23:13.440Z,21.60
2022-08-19T02:24:36.042Z,30.13
2022-08-19T02:25:58.166Z,20.30
2022-08-19T02:27:20.372Z,22.53
2022-08-19T02:28:43.789Z,21.80
2022-08-19T02:30:14.503Z,23.97
2022-08-19T02:31:37.022Z,21.90
2022-08-19T02:32:59.518Z,21.00
2022-08-19T02:34:21.675Z,21.73
2022-08-19T02:35:45.964Z,22.83
2022-08-19T02:37:28.617Z,24.17
2022-08-19T02:38:54.215Z,20.50
2022-08-19T02:40:18.775Z,22.10
2022-08-19T02:41:40.907Z,23.80
2022-08-19T02:43:08.874Z,23.13
2022-08-19T02:44:31.961Z,23.73
2022-08-19T02:45:54.750Z,19.30
2022-08-19T02:47:16.811Z,20.43
2022-08-19T02:48:38.928Z,24.80
2022-08-19T02:50:02.646Z,24.27
2022-08-19T02:51:33.812Z,26.40
2022-08-19T02:52:55.886Z,19.67
2022-08-19T02:54:17.993Z,20.90
2022-08-19T02:55:49.414Z,21.77
2022-08-19T02:57:11.746Z,19.00
2022-08-19T02:58:33.813Z,20.80
2022-08-19T02:59:55.942Z,21.40
2022-08-19T03:01:36.641Z,22.20
2022-08-19T03:02:58.768Z,19.50
2022-08-19T03:04:20.871Z,23.27
2022-08-19T03:05:55.975Z,18.10
2022-08-19T03:07:19.665Z,25.20
2022-08-19T03:08:43.820Z,23.27
2022-08-19T03:10:06.772Z,24.33
2022-08-19T03:11:31.954Z,21.60
2022-08-19T03:12:54.196Z,21.97
2022-08-19T03:14:16.545Z,22.57
2022-08-19T03:15:44.165Z,23.40
2022-08-19T03:17:06.546Z,22.57
2022-08-19T03:18:28.686Z,25.27
2022-08-19T03:19:50.724Z,19.63
2022-08-19T03:21:24.904Z,26.07
2022-08-19T03:22:47.058Z,24.33
2022-08-19T03:24:09.922Z,23.10
2022-08-19T03:25:32.060Z,25.83
2022-08-19T03:26:59.622Z,20.97
2022-08-19T03:28:22.234Z,19.30
2022-08-19T03:29:44.860Z,23.00
2022-08-19T03:31:45.481Z,23.70
2022-08-19T03:32:53.679Z,24.50
2022-08-19T03:34:27.428Z,16.87
2022-08-19T03:36:01.750Z,19.00
2022-08-19T03:37:23.908Z,22.60
2022-08-19T03:38:50.744Z,23.77
2022-08-19T03:40:21.656Z,17.70
2022-08-19T03:41:46.641Z,19.60
2022-08-19T03:43:10.682Z,21.73
2022-08-19T03:44:33.443Z,20.20
2022-08-19T03:46:08.514Z,20.67
2022-08-19T03:47:31.436Z,25.77
2022-08-19T03:48:55.919Z,22.83
2022-08-19T03:50:20.330Z,21.13
2022-08-19T03:51:44.092Z,22.20
2022-08-19T03:53:07.325Z,24.33
2022-08-19T03:54:30.320Z,20.70
2022-08-19T03:55:52.420Z,19.60
2022-08-19T03:57:14.460Z,22.87
2022-08-19T03:58:38.585Z,21.30
2022-08-19T04:00:03.773Z,21.97
2022-08-19T04:01:36.334Z,21.93
2022-08-19T04:03:00.602Z,23.47
2022-08-19T04:04:23.729Z,22.70
2022-08-19T04:05:47.699Z,20.70
2022-08-19T04:07:11.083Z,20.40
2022-08-19T04:08:33.105Z,18.27
2022-08-19T04:09:55.226Z,18.80
2022-08-19T04:11:22.312Z,19.93
2022-08-19T04:13:06.282Z,23.03
2022-08-19T04:14:31.283Z,23.33
2022-08-19T04:15:54.434Z,20.70
2022-08-19T04:17:16.587Z,19.87
2022-08-19T04:18:40.181Z,20.67
2022-08-19T04:20:02.396Z,14.37
2022-08-19T04:21:29.772Z,18.57
2022-08-19T04:22:51.986Z,16.60
2022-08-19T04:24:15.135Z,18.23
2022-08-19T04:25:39.706Z,18.40
2022-08-19T04:27:03.694Z,20.20
2022-08-19T04:28:26.761Z,17.47
2022-08-19T04:29:49.075Z,15.07
2022-08-19T04:31:16.409Z,25.70
2022-08-19T04:32:38.468Z,16.83
2022-08-19T04:34:02.468Z,18.87
2022-08-19T04:35:25.073Z,18.50
2022-08-19T04:36:47.241Z,15.03
2022-08-19T04:38:10.563Z,19.67
2022-08-19T04:39:51.268Z,18.33
2022-08-19T04:41:32.111Z,18.30
2022-08-19T04:42:55.064Z,17.60
2022-08-19T04:44:19.105Z,12.33
2022-08-19T04:45:43.843Z,13.70
2022-08-19T04:47:11.450Z,15.30
2022-08-19T04:48:35.252Z,13.17
2022-08-19T04:49:58.334Z,12.20
2022-08-19T04:51:21.676Z,15.10
2022-08-19T04:52:43.846Z,15.93
2022-08-19T04:54:05.951Z,16.23
2022-08-19T04:55:28.017Z,16.43
2022-08-19T04:56:50.974Z,15.27
2022-08-19T04:58:13.131Z,13.90
2022-08-19T04:59:35.877Z,18.70
2022-08-19T05:00:58.095Z,18.40
2022-08-19T05:02:20.311Z,21.60
2022-08-19T05:03:42.449Z,16.80
2022-08-19T05:05:05.004Z,21.10
2022-08-19T05:06:27.419Z,16.13
2022-08-19T05:07:49.489Z,19.50
2022-08-19T05:09:11.557Z,17.93
2022-08-19T05:10:36.897Z,15.37
2022-08-19T05:11:58.933Z,14.83
2022-08-19T05:13:21.077Z,16.80
2022-08-19T05:14:43.510Z,13.67
2022-08-19T05:16:05.666Z,14.43
2022-08-19T05:17:32.086Z,16.73
2022-08-19T05:19:14.927Z,15.13
2022-08-19T05:20:58.433Z,19.07
2022-08-19T05:22:33.431Z,15.33
2022-08-19T05:23:55.572Z,14.33
2022-08-19T05:25:20.421Z,15.27
2022-08-19T05:26:47.285Z,12.17
2022-08-19T05:28:09.322Z,17.47
2022-08-19T05:29:36.289Z,13.80
2022-08-19T05:30:58.749Z,14.20
2022-08-19T05:32:22.641Z,18.33
2022-08-19T05:33:44.747Z,23.00
2022-08-19T05:35:07.389Z,17.73
2022-08-19T05:36:36.069Z,19.03
2022-08-19T05:37:58.960Z,22.10
2022-08-19T05:39:22.046Z,22.00
2022-08-19T05:40:47.902Z,22.37
2022-08-19T05:42:12.289Z,18.40
2022-08-19T05:43:34.539Z,15.63
2022-08-19T05:44:57.675Z,14.73
2022-08-19T05:46:27.989Z,19.40
2022-08-19T05:47:50.538Z,18.03
2022-08-19T05:49:12.684Z,17.17
2022-08-19T05:50:37.152Z,18.37
2022-08-19T05:52:00.450Z,18.07
2022-08-19T05:53:22.521Z,19.17
2022-08-19T05:54:45.182Z,18.97
2022-08-19T05:56:17.069Z,19.60
2022-08-19T05:57:39.560Z,23.10
2022-08-19T05:59:01.985Z,22.47
2022-08-19T06:00:24.868Z,22.63
2022-08-19T06:01:47.406Z,21.67
2022-08-19T06:03:11.937Z,17.00
2022-08-19T06:04:35.687Z,21.73
2022-08-19T06:06:00.177Z,18.67
2022-08-19T06:07:22.426Z,15.97
2022-08-19T06:08:51.645Z,18.80
2022-08-19T06:10:13.810Z,25.20
2022-08-19T06:11:45.282Z,18.00
2022-08-19T06:13:07.367Z,22.97
2022-08-19T06:14:35.504Z,27.00
2022-08-19T06:16:02.612Z,22.73
2022-08-19T06:17:26.966Z,23.40
2022-08-19T06:18:58.049Z,21.13
2022-08-19T06:20:39.831Z,23.20
2022-08-19T06:22:04.258Z,24.67
2022-08-19T06:23:26.693Z,23.93
2022-08-19T06:24:48.989Z,23.10
2022-08-19T06:26:13.954Z,23.80
2022-08-19T06:27:37.853Z,25.30
2022-08-19T06:29:01.964Z,22.93
2022-08-19T06:30:24.470Z,21.30
2022-08-19T06:31:53.361Z,23.63
2022-08-19T06:33:15.504Z,24.83
2022-08-19T06:34:37.718Z,25.03
2022-08-19T06:35:59.819Z,26.90
2022-08-19T06:37:22.620Z,21.93
2022-08-19T06:38:44.849Z,22.40
2022-08-19T06:40:09.579Z,26.93
2022-08-19T06:41:37.097Z,22.37
2022-08-19T06:43:03.102Z,22.80
2022-08-19T06:44:35.378Z,24.03
2022-08-19T06:46:11.621Z,24.20
2022-08-19T06:47:37.271Z,33.13
2022-08-19T06:48:59.614Z,30.30
2022-08-19T06:50:21.938Z,23.10
2022-08-19T06:51:51.911Z,25.40
2022-08-19T06:53:14.087Z,30.80
2022-08-19T06:54:37.733Z,32.13
2022-08-19T06:56:21.965Z,33.53
2022-08-19T06:57:47.146Z,28.07
2022-08-19T06:59:12.042Z,24.43
2022-08-19T07:00:34.748Z,23.63
2022-08-19T07:01:58.061Z,22.87
2022-08-19T07:03:20.397Z,23.80
2022-08-19T07:04:42.576Z,22.10
2022-08-19T07:06:26.550Z,26.30
2022-08-19T07:07:53.390Z,20.53
2022-08-19T07:09:19.687Z,23.97
2022-08-19T07:10:47.530Z,26.77
2022-08-19T07:12:12.133Z,21.87
2022-08-19T07:13:39.499Z,24.63
2022-08-19T07:15:01.718Z,22.50
2022-08-19T07:16:29.034Z,24.10
2022-08-19T07:17:52.764Z,21.67
2022-08-19T07:19:18.705Z,24.23
2022-08-19T07:20:41.820Z,30.27
2022-08-19T07:22:06.576Z,21.77
2022-08-19T07:23:28.718Z,22.40
2022-08-19T07:24:52.026Z,24.77
2022-08-19T07:26:20.211Z,23.37
2022-08-19T07:27:54.610Z,22.90
2022-08-19T07:29:17.489Z,24.80
2022-08-19T07:30:41.675Z,23.37
2022-08-19T07:32:06.671Z,20.90
2022-08-19T07:33:36.843Z,23.37
2022-08-19T07:35:01.543Z,24.27
2022-08-19T07:36:32.080Z,22.00
2022-08-19T07:37:54.398Z,27.63
2022-08-19T07:39:23.976Z,22.17
2022-08-19T07:40:47.263Z,21.00
2022-08-19T07:42:11.473Z,27.37
2022-08-19T07:43:35.668Z,22.67
2022-08-19T07:44:59.357Z,24.33
2022-08-19T07:46:21.707Z,24.00
2022-08-19T07:47:49.585Z,27.80
2022-08-19T07:49:18.414Z,26.83
2022-08-19T07:50:40.507Z,24.57
2022-08-19T07:52:07.925Z,23.90
2022-08-19T07:53:31.313Z,27.43
2022-08-19T07:54:53.706Z,24.13
2022-08-19T07:56:16.112Z,24.43
2022-08-19T07:57:39.861Z,22.10
2022-08-19T07:59:01.990Z,28.70
2022-08-19T08:00:24.377Z,27.70
2022-08-19T08:01:47.375Z,32.43
2022-08-19T08:03:10.141Z,29.30
2022-08-19T08:04:50.769Z,31.40
2022-08-19T08:06:34.932Z,29.80
2022-08-19T08:08:16.101Z,27.07
2022-08-19T08:09:41.616Z,31.10
2022-08-19T08:11:07.812Z,28.10
2022-08-19T08:12:42.310Z,24.63
2022-08-19T08:14:05.792Z,27.50
2022-08-19T08:15:27.835Z,28.30
2022-08-19T08:16:52.219Z,24.40
2022-08-19T08:18:14.566Z,29.40
2022-08-19T08:19:38.283Z,26.67
2022-08-19T08:21:00.561Z,30.43
2022-08-19T08:22:42.432Z,24.07
2022-08-19T08:24:05.041Z,22.10
2022-08-19T08:25:27.490Z,22.20
2022-08-19T08:26:57.677Z,17.00
2022-08-19T08:28:20.392Z,20.03
2022-08-19T08:29:42.543Z,15.53
2022-08-19T08:31:09.759Z,16.73
2022-08-19T08:32:32.026Z,17.17
2022-08-19T08:33:54.174Z,22.97
2022-08-19T08:35:23.235Z,17.30
2022-08-19T08:36:46.837Z,21.33
2022-08-19T08:38:08.932Z,19.00
2022-08-19T08:39:31.223Z,18.20
2022-08-19T08:41:07.581Z,17.93
2022-08-19T08:42:37.214Z,18.43
2022-08-19T08:43:59.946Z,18.50
2022-08-19T08:45:23.359Z,20.87
2022-08-19T08:46:53.843Z,18.10
2022-08-19T08:48:32.227Z,21.63
2022-08-19T08:50:01.381Z,22.20
2022-08-19T08:53:06.209Z,19.60
2022-08-19T08:54:55.446Z,18.63
2022-08-19T08:56:18.433Z,19.60
2022-08-19T08:57:54.497Z,23.33
2022-08-19T08:59:33.349Z,17.53
2022-08-19T09:00:55.474Z,20.20
2022-08-19T09:02:18.096Z,19.23
2022-08-19T09:03:42.813Z,17.47
2022-08-19T09:05:05.579Z,16.73
2022-08-19T09:06:36.644Z,21.80
2022-08-19T09:08:12.103Z,17.00
2022-08-19T09:09:42.884Z,19.60
2022-08-19T09:11:09.861Z,21.17
2022-08-19T09:12:54.899Z,16.67
2022-08-19T09:14:47.442Z,17.73
2022-08-19T09:16:07.590Z,18.23
2022-08-19T09:17:32.260Z,17.20
2022-08-19T09:19:08.054Z,25.90
2022-08-19T09:20:32.064Z,26.00
2022-08-19T09:21:55.339Z,25.47
2022-08-19T09:23:19.050Z,26.43
2022-08-19T09:24:55.784Z,27.60
2022-08-19T09:26:21.189Z,26.43
2022-08-19T09:27:45.155Z,26.03
2022-08-19T09:29:07.768Z,24.40
2022-08-19T09:30:33.535Z,23.90
2022-08-19T09:31:55.785Z,32.93
2022-08-19T09:33:18.479Z,31.70
2022-08-19T09:34:44.022Z,30.67
2022-08-19T09:36:09.729Z,34.20
2022-08-19T09:37:31.760Z,32.23
2022-08-19T09:38:56.944Z,30.07
2022-08-19T09:40:21.205Z,31.20
2022-08-19T09:41:47.674Z,29.40
2022-08-19T09:43:13.488Z,33.70
2022-08-19T09:44:35.902Z,33.30
2022-08-19T09:46:01.196Z,32.30
2022-08-19T09:47:23.272Z,36.50
2022-08-19T09:48:49.238Z,35.17
2022-08-19T09:50:16.615Z,35.70
2022-08-19T09:51:38.923Z,31.83
2022-08-19T09:53:01.751Z,37.30
2022-08-19T09:54:25.325Z,37.80
2022-08-19T09:55:47.559Z,46.83
2022-08-19T09:57:09.689Z,36.47
2022-08-19T09:58:35.625Z,38.17
2022-08-19T09:59:57.709Z,38.43
2022-08-19T10:01:23.950Z,39.13
2022-08-19T10:02:46.057Z,44.37
2022-08-19T10:04:19.800Z,41.97
2022-08-19T10:05:49.308Z,44.30
2022-08-19T10:07:11.712Z,43.00
2022-08-19T10:08:37.591Z,45.50
2022-08-19T10:09:59.749Z,40.87
2022-08-19T10:11:28.373Z,47.20
2022-08-19T10:12:58.518Z,51.60
2022-08-19T10:14:23.507Z,49.03
2022-08-19T10:15:47.917Z,42.27
2022-08-19T10:17:17.717Z,46.37
2022-08-19T10:18:44.580Z,48.40
2022-08-19T10:20:14.165Z,46.37
2022-08-19T10:21:36.879Z,44.60
2022-08-19T10:23:00.407Z,46.10
2022-08-19T10:24:25.402Z,47.37
2022-08-19T10:25:48.675Z,42.10
2022-08-19T10:27:10.785Z,40.77
2022-08-19T10:28:40.094Z,39.60
2022-08-19T10:30:09.915Z,43.50
2022-08-19T10:31:59.856Z,35.80
2022-08-19T10:33:38.188Z,40.53
2022-08-19T10:34:58.904Z,33.60
2022-08-19T10:36:23.561Z,32.70
2022-08-19T10:37:56.794Z,30.87
2022-08-19T10:39:23.471Z,23.47
2022-08-19T10:40:45.656Z,27.87
2022-08-19T10:42:08.550Z,23.27
2022-08-19T10:43:30.667Z,20.60
2022-08-19T10:44:52.801Z,19.27
2022-08-19T10:46:16.956Z,17.20
2022-08-19T10:47:39.264Z,18.83
2022-08-19T10:49:02.944Z,18.20
2022-08-19T10:50:43.504Z,17.73
2022-08-19T10:52:32.306Z,17.50
2022-08-19T10:53:56.541Z,14.37
2022-08-19T10:55:41.389Z,15.23
2022-08-19T10:57:03.568Z,15.40
2022-08-19T10:58:26.981Z,16.07
2022-08-19T10:59:49.224Z,17.83
2022-08-19T11:01:11.587Z,16.93
2022-08-19T11:02:33.827Z,17.47
2022-08-19T11:03:57.545Z,17.47
2022-08-19T11:05:20.569Z,17.87
2022-08-19T11:06:48.586Z,18.40
2022-08-19T11:08:18.155Z,17.93
2022-08-19T11:09:47.476Z,18.03
2022-08-19T11:11:10.041Z,15.53
2022-08-19T11:12:32.130Z,18.17
2022-08-19T11:13:54.722Z,17.50
2022-08-19T11:15:17.274Z,17.90
2022-08-19T11:16:40.084Z,19.20
2022-08-19T11:18:02.168Z,18.07
2022-08-19T11:19:24.835Z,17.50
2022-08-19T11:20:46.970Z,17.70
2022-08-19T11:22:10.446Z,16.80
2022-08-19T11:23:36.826Z,16.97
2022-08-19T11:24:59.059Z,17.23
2022-08-19T11:26:22.883Z,19.40
2022-08-19T11:27:45.611Z,21.23
2022-08-19T11:29:12.434Z,18.47
2022-08-19T11:30:35.266Z,19.27
2022-08-19T11:31:57.486Z,21.93
2022-08-19T11:33:20.108Z,24.47
2022-08-19T11:34:42.414Z,26.33
2022-08-19T11:36:05.077Z,24.73
2022-08-19T11:37:27.974Z,24.97
2022-08-19T11:38:51.053Z,26.27
2022-08-19T11:40:13.421Z,29.93
2022-08-19T11:41:35.885Z,26.03
2022-08-19T11:42:58.001Z,28.20
2022-08-19T11:44:20.477Z,31.63
2022-08-19T11:45:42.711Z,28.20
2022-08-19T11:47:08.889Z,27.17
2022-08-19T11:48:31.702Z,28.50
2022-08-19T11:49:54.377Z,30.10
2022-08-19T11:51:20.518Z,26.53
2022-08-19T11:52:43.610Z,27.00
2022-08-19T11:54:07.137Z,28.63
2022-08-19T11:55:29.311Z,29.90
2022-08-19T11:56:51.475Z,27.93
2022-08-19T11:58:18.776Z,25.47
2022-08-19T11:59:41.402Z,22.43
2022-08-19T12:01:12.092Z,26.67
2022-08-19T12:02:34.418Z,31.60
2022-08-19T12:03:57.853Z,28.10
2022-08-19T12:05:20.083Z,32.00
2022-08-19T12:06:42.549Z,28.53
2022-08-19T12:08:05.519Z,23.80
2022-08-19T12:09:27.587Z,29.37
2022-08-19T12:10:53.152Z,25.80
2022-08-19T12:12:15.678Z,25.00
2022-08-19T12:13:39.791Z,26.33
2022-08-19T12:15:02.133Z,25.97
2022-08-19T12:16:27.840Z,23.50
2022-08-19T12:17:50.812Z,22.13
2022-08-19T12:19:13.512Z,21.83
2022-08-19T12:20:38.855Z,23.00
2022-08-19T12:22:03.873Z,24.53
2022-08-19T12:23:26.156Z,22.13
2022-08-19T12:24:51.152Z,20.13
2022-08-19T12:26:13.472Z,18.03
2022-08-19T12:27:40.825Z,17.60
2022-08-19T12:29:04.857Z,22.67
2022-08-19T12:30:27.029Z,18.70
2022-08-19T12:31:49.184Z,18.60
2022-08-19T12:33:11.270Z,17.03
2022-08-19T12:34:33.786Z,19.93
2022-08-19T12:36:00.714Z,16.97
2022-08-19T12:37:22.811Z,17.90
2022-08-19T12:38:45.191Z,17.73
2022-08-19T12:40:07.983Z,18.57
2022-08-19T12:41:30.145Z,16.57
2022-08-19T12:42:52.285Z,16.10
2022-08-19T12:44:14.522Z,19.27
2022-08-19T12:45:37.094Z,14.90
2022-08-19T12:47:00.021Z,15.07
2022-08-19T12:48:34.606Z,18.70
2022-08-19T12:49:57.461Z,20.50
2022-08-19T12:51:22.676Z,19.63
2022-08-19T12:52:44.734Z,17.40
2022-08-19T12:54:07.464Z,18.33
2022-08-19T12:55:30.107Z,17.87
2022-08-19T12:56:52.155Z,17.50
2022-08-19T12:58:14.353Z,19.27
2022-08-19T12:59:37.543Z,18.07
2022-08-19T13:00:59.688Z,20.20
2022-08-19T13:02:23.308Z,16.70
2022-08-19T13:03:48.335Z,21.07
2022-08-19T13:05:25.697Z,20.13
2022-08-19T13:06:47.741Z,20.07
2022-08-19T13:09:12.276Z,20.70
2022-08-19T13:10:36.957Z,22.00
2022-08-19T13:11:59.058Z,21.40
2022-08-19T13:13:21.113Z,20.40
2022-08-19T13:14:43.943Z,21.20
2022-08-19T13:16:06.285Z,22.20
2022-08-19T13:17:28.405Z,19.10
2022-08-19T13:18:53.604Z,19.53
2022-08-19T13:20:18.533Z,22.63
2022-08-19T13:21:40.777Z,24.43
2022-08-19T13:23:05.575Z,24.80
2022-08-19T13:24:31.383Z,20.20
2022-08-19T13:26:00.965Z,21.43
2022-08-19T13:27:23.140Z,20.70
2022-08-19T13:29:04.684Z,18.73
2022-08-19T13:30:45.935Z,21.40
2022-08-19T13:32:26.696Z,24.17
2022-08-19T13:33:48.762Z,23.50
2022-08-19T13:35:16.121Z,21.17
2022-08-19T13:36:39.726Z,24.73
2022-08-19T13:38:06.422Z,19.37
2022-08-19T13:39:34.863Z,22.47
2022-08-19T13:40:57.053Z,23.53
2022-08-19T13:42:20.205Z,19.50
2022-08-19T13:43:42.360Z,20.30
2022-08-19T13:45:07.354Z,19.33
2022-08-19T13:46:30.136Z,26.03
2022-08-19T13:47:59.451Z,19.70
2022-08-19T13:49:24.061Z,24.63
2022-08-19T13:50:48.269Z,21.10
2022-08-19T13:52:10.352Z,19.30
2022-08-19T13:53:32.462Z,23.87
2022-08-19T13:54:54.876Z,20.47
2022-08-19T13:56:24.132Z,21.60
2022-08-19T13:57:55.151Z,24.43
2022-08-19T13:59:18.008Z,22.63
2022-08-19T14:00:44.316Z,23.53
2022-08-19T14:02:06.446Z,24.60
2022-08-19T14:03:29.346Z,22.87
2022-08-19T14:04:51.446Z,21.73
2022-08-19T14:06:13.574Z,21.70
2022-08-19T14:07:37.253Z,21.00
2022-08-19T14:09:00.524Z,20.10
2022-08-19T14:10:24.265Z,19.50
2022-08-19T14:11:47.536Z,20.60
2022-08-19T14:13:09.976Z,22.50
2022-08-19T14:14:32.488Z,25.97
2022-08-19T14:15:54.573Z,22.97
2022-08-19T14:17:17.099Z,19.60
2022-08-19T14:18:40.647Z,22.53
2022-08-19T14:20:10.554Z,23.70
2022-08-19T14:21:36.554Z,21.20
2022-08-19T14:23:02.998Z,19.40
2022-08-19T14:24:25.461Z,25.20
2022-08-19T14:25:47.891Z,21.47
2022-08-19T14:27:10.398Z,25.20
2022-08-19T14:28:32.581Z,23.27
2022-08-19T14:29:54.711Z,24.50
2022-08-19T14:31:19.999Z,22.27
2022-08-19T14:32:44.319Z,27.57
2022-08-19T14:34:06.387Z,22.60
2022-08-19T14:35:31.243Z,20.97
2022-08-19T14:36:54.031Z,22.87
2022-08-19T14:38:28.194Z,25.80
2022-08-19T14:39:54.099Z,21.93
2022-08-19T14:41:22.782Z,22.47
2022-08-19T14:42:45.155Z,22.17
2022-08-19T14:44:07.439Z,22.27
2022-08-19T14:45:31.745Z,25.63
2022-08-19T14:46:54.601Z,25.30
2022-08-19T14:48:19.443Z,21.87
2022-08-19T14:49:48.325Z,21.03
2022-08-19T14:51:11.569Z,22.83
2022-08-19T14:52:34.582Z,25.80
2022-08-19T14:53:58.403Z,23.63
2022-08-19T14:55:21.521Z,18.83
2022-08-19T14:56:45.160Z,22.23
2022-08-19T14:58:08.856Z,21.60
2022-08-19T14:59:33.399Z,20.43
2022-08-19T15:00:57.939Z,24.80
2022-08-19T15:02:34.502Z,20.97
2022-08-19T15:03:58.544Z,20.33
2022-08-19T15:05:22.566Z,24.40
2022-08-19T15:06:46.115Z,24.20
2022-08-19T15:08:09.711Z,21.60
2022-08-19T15:09:36.685Z,21.70
2022-08-19T15:11:00.949Z,24.27
2022-08-19T15:12:25.640Z,22.93
2022-08-19T15:13:50.094Z,21.03
2022-08-19T15:15:15.743Z,22.30
2022-08-19T15:16:42.117Z,28.60
2022-08-19T15:18:05.682Z,23.30
2022-08-19T15:19:29.632Z,21.60
2022-08-19T15:20:53.309Z,23.57
2022-08-19T15:22:16.679Z,22.93
2022-08-19T15:23:39.205Z,23.80
2022-08-19T15:25:02.213Z,27.77
2022-08-19T15:26:27.318Z,24.27
2022-08-19T15:27:49.526Z,23.27
2022-08-19T15:29:15.472Z,25.57
2022-08-19T15:30:37.970Z,27.53
2022-08-19T15:32:00.100Z,22.03
2022-08-19T15:33:23.679Z,22.60
2022-08-19T15:34:49.569Z,23.17
2022-08-19T15:36:16.730Z,25.03
2022-08-19T15:37:41.280Z,25.30
2022-08-19T15:39:05.317Z,23.33
2022-08-19T15:40:28.257Z,19.50
2022-08-19T15:41:50.415Z,20.70
2022-08-19T15:43:12.449Z,20.40
2022-08-19T15:44:34.793Z,17.77
2022-08-19T15:45:56.812Z,17.20
2022-08-19T15:47:20.633Z,20.33
2022-08-19T15:48:42.651Z,17.07
2022-08-19T15:50:18.449Z,18.83
2022-08-19T15:51:43.139Z,16.60
2022-08-19T15:53:11.014Z,16.53
2022-08-19T15:54:33.546Z,15.80
2022-08-19T15:55:55.650Z,19.70
2022-08-19T15:57:26.819Z,17.80
2022-08-19T15:59:07.329Z,15.67
2022-08-19T16:00:50.023Z,17.97
2022-08-19T16:02:37.016Z,16.50
2022-08-19T16:04:19.458Z,16.27
2022-08-19T16:06:07.505Z,17.90
2022-08-19T16:07:29.915Z,24.47
2022-08-19T16:08:57.783Z,18.53
2022-08-19T16:10:26.218Z,20.03
2022-08-19T16:11:56.498Z,23.30
2022-08-19T16:13:19.326Z,21.03
2022-08-19T16:14:41.372Z,22.57
2022-08-19T16:16:03.666Z,21.90
2022-08-19T16:17:25.861Z,21.40
2022-08-19T16:18:48.232Z,21.20
2022-08-19T16:20:11.155Z,21.03
2022-08-19T16:21:35.592Z,21.50
2022-08-19T16:22:59.387Z,20.47
2022-08-19T16:24:24.306Z,22.20
2022-08-19T16:25:46.367Z,25.73
2022-08-19T16:27:08.566Z,24.43
2022-08-19T16:28:30.709Z,22.67
2022-08-19T16:29:53.000Z,21.07
2022-08-19T16:31:15.658Z,22.63
2022-08-19T16:32:42.283Z,19.50
2022-08-19T16:34:05.209Z,20.67
2022-08-19T16:35:27.325Z,21.67
2022-08-19T16:36:50.355Z,23.90
2022-08-19T16:38:12.589Z,22.67
2022-08-19T16:39:34.735Z,26.03
2022-08-19T16:40:57.147Z,23.50
2022-08-19T16:42:19.556Z,24.20
2022-08-19T16:43:42.302Z,22.20
2022-08-19T16:45:04.925Z,28.80
2022-08-19T16:46:27.654Z,24.33
2022-08-19T16:47:50.519Z,26.50
2022-08-19T16:49:13.515Z,25.73
2022-08-19T16:50:48.833Z,26.33
2022-08-19T16:52:11.816Z,32.20
2022-08-19T16:53:35.613Z,26.60
2022-08-19T16:54:58.115Z,27.13
2022-08-19T16:56:21.396Z,27.20
2022-08-19T16:57:43.814Z,30.13
2022-08-19T16:59:06.576Z,30.10
2022-08-19T17:00:28.679Z,28.67
2022-08-19T17:01:52.273Z,31.37
2022-08-19T17:03:15.269Z,29.03
2022-08-19T17:04:37.635Z,32.80
2022-08-19T17:06:03.814Z,30.70
2022-08-19T17:07:33.334Z,30.23
2022-08-19T17:08:58.914Z,31.73
2022-08-19T17:10:21.012Z,32.10
2022-08-19T17:11:43.107Z,35.93
2022-08-19T17:13:06.516Z,34.03
2022-08-19T17:14:28.554Z,33.73
2022-08-19T17:15:50.634Z,39.80
2022-08-19T17:17:12.945Z,34.50
2022-08-19T17:18:35.206Z,36.27
2022-08-19T17:20:02.374Z,35.00
2022-08-19T17:21:28.288Z,37.23
2022-08-19T17:22:50.428Z,37.90
2022-08-19T17:24:12.544Z,33.80
2022-08-19T17:25:34.964Z,37.03
2022-08-19T17:26:57.072Z,35.63
2022-08-19T17:28:25.718Z,36.67
2022-08-19T17:29:48.102Z,39.03
2022-08-19T17:31:10.307Z,35.23
2022-08-19T17:32:34.765Z,34.33
2022-08-19T17:33:58.824Z,33.27
2022-08-19T17:35:24.116Z,37.17
2022-08-19T17:36:47.068Z,43.33
2022-08-19T17:38:11.922Z,38.80
2022-08-19T17:39:39.648Z,40.10
2022-08-19T17:41:05.300Z,41.60
2022-08-19T17:42:27.956Z,36.30
2022-08-19T17:43:50.285Z,40.17
2022-08-19T17:45:13.770Z,44.87
2022-08-19T17:46:36.178Z,45.73
2022-08-19T17:47:58.202Z,42.50
2022-08-19T17:49:20.323Z,49.97
2022-08-19T17:50:42.683Z,43.30
2022-08-19T17:52:09.909Z,49.93
2022-08-19T17:53:32.382Z,44.60
2022-08-19T17:54:54.661Z,43.37
2022-08-19T17:56:17.102Z,48.60
2022-08-19T17:57:41.882Z,46.97
2022-08-19T17:59:07.856Z,46.37
2022-08-19T18:00:36.206Z,41.73
2022-08-19T18:01:58.841Z,39.53
2022-08-19T18:03:22.169Z,43.67
2022-08-19T18:04:48.586Z,39.87
2022-08-19T18:06:11.411Z,40.63
2022-08-19T18:07:34.369Z,41.87
2022-08-19T18:08:56.677Z,39.10
2022-08-19T18:10:20.375Z,41.07
2022-08-19T18:11:43.900Z,37.97
2022-08-19T18:13:17.171Z,33.80
2022-08-19T18:14:41.153Z,31.30
2022-08-19T18:16:06.944Z,34.57
2022-08-19T18:17:29.247Z,32.20
2022-08-19T18:18:54.374Z,32.93